Current Conditions

Updated: 05-May-2015 9:17am  
Summary / Temperature Wind Rain






Feels like: 64°F

1-hour difference
4.1°F 4.1°F warmer than last hour.

24-hour difference
0.5°F0.5°F warmer than yesterday at this time.

  Today Yesterday
High: 64.0°F
9:15am
84.0°F
3:02pm
Low: 54.3°F
5:51am
54.7°F
6:36am
Calm SW
0.0
Gust:  0.0 mph
0 Beaufort - Calm

Today: 3.5 - 8:50am
Month: 10.0 mph - May 3
Rain Today: 0.00 in
Current Rate (/hr): 0.00 in
Max Rate (/hr):
Rain Yesterday: 0.00 in
Storm Rain: 0.00 in
This Month: 0.00 in
Season Total: 4.22 in
Last Rain Event: 9 days ago
Humidity / Barometer Sun / Moon
Humidity: 56 Decreased 7.0% in the last hour.
Dew Point: 48.0°F Increased 0.8°F in the last hour.
Barometer: 29.898 inHg  
Baro Trend: Steady
Sunrise: 5:59am
Sunset: 7:46pm
Moonrise: 8:34pm
Moonset: 7:15am
Sky Conditions UV Index
Sky: Clear
Visibility: 10 miles
Clouds: None
Current: 4.0  Moderate 
Tuesday: 7.5  High 
Wednesday: 7.3  High 
Air Quality Fire Danger
Current: 12  Low 

Local Alerts Local Forecast
Local NWS Alerts
Today

Mostly
Sunny
High 83
Tonight

Mostly
Clear
Low 49
Wed

Partly
Sunny
High 79
Wed night

Partly
Cloudy
Low 47
Thu

Chance of
T'Storms
High 72
Thu night

Chance of
T'Storms
Low 47
Fri

Chance of
T'Storms
High 73

Local Radar Local Satellite Neighborhood Cam Sky Cam
Local Radar Local Satellite Neighborhood Cam Sky Cam


Nearby METAR Reports

KPTV - Porterville, California, USA
Distance from station: SSW 4mi, 7km
Updated: Tue, 05-May-2015 8:55am PDT
Clear
Clear
 Wind from SSW
Wind: SSW 6 mph , 9 km/h
Temperature: 63°F , 17°C
Dew Point: 43°F , 6°C
Humidity: 49%
Barometer: 29.94 inHg , 1013.9 hPa
Clouds: Clear
Visibility: 10 miles , 16 km
2015/05/05 15:55 KPTV 051555Z AUTO 21005KT 10SM CLR 17/06 A2994 RMK AO1
KVIS - Visalia, California, USA
Distance from station: NW 27mi, 43km
Updated: Tue, 05-May-2015 8:55am PDT
Clear
Clear
 Wind from calm
Wind: Calm
Temperature: 61°F , 16°C
Dew Point: 46°F , 8°C
Humidity: 59%
Barometer: 29.93 inHg , 1013.5 hPa
Clouds: Clear
Visibility: 10 miles , 16 km
2015/05/05 15:55 KVIS 051555Z AUTO 00000KT 10SM CLR 16/08 A2993 RMK AO1

Metar display script from Saratoga-Weather.org



Visitor Map